Time;durP1;ratioP1;P1;durP2;ratioP2;P2;SDS_P1;SDS_P2;PMS_P1;PMS_P2;Temp;Humidity;BMP_temperature;BMP_pressure;BME280_temperature;BME280_humidity;BME280_pressure;Samples;Min_cycle;Max_cycle;Signal;HPM_P1;HPM_P2
2022/05/08 00:00:05;;;;;;;11.77;10.10;;;;;;;16.39;65.02;101170.06;5051794;28;20052;-61
2022/05/08 00:02:32;;;;;;;10.45;8.70;;;;;;;16.40;65.02;101177.34;5051850;28;20059;-62
2022/05/08 00:05:00;;;;;;;12.23;9.35;;;;;;;16.41;65.08;101178.97;5051423;28;20057;-62
2022/05/08 00:07:33;;;;;;;11.88;9.70;;;;;;;16.40;64.82;101171.72;5051832;28;20420;-60
2022/05/08 00:10:00;;;;;;;13.88;8.52;;;;;;;16.39;64.61;101181.31;5055200;28;20049;-61
2022/05/08 00:12:29;;;;;;;12.60;8.88;;;;;;;16.28;64.98;101180.03;5051535;28;20052;-61
2022/05/08 00:14:56;;;;;;;10.98;8.45;;;;;;;16.23;64.88;101181.88;5051779;28;20057;-61
2022/05/08 00:17:24;;;;;;;11.88;9.10;;;;;;;16.24;64.74;101185.50;5051413;28;20052;-60
2022/05/08 00:19:51;;;;;;;11.27;8.60;;;;;;;16.26;64.63;101187.97;5051451;28;20392;-61
2022/05/08 00:22:21;;;;;;;10.85;8.27;;;;;;;16.29;64.50;101184.47;5051001;28;20060;-61
2022/05/08 00:24:49;;;;;;;11.40;8.85;;;;;;;16.28;64.48;101192.09;5051447;28;20045;-61
2022/05/08 00:27:16;;;;;;;11.88;8.73;;;;;;;16.29;64.37;101195.72;5050411;28;20064;-61
2022/05/08 00:29:45;;;;;;;9.73;7.93;;;;;;;16.27;64.17;101190.44;5051826;28;20094;-61
2022/05/08 00:32:12;;;;;;;9.55;8.27;;;;;;;16.21;64.17;101198.25;5051256;28;20053;-62
2022/05/08 00:34:42;;;;;;;10.93;8.15;;;;;;;16.21;63.91;101189.81;5051781;28;20052;-62
2022/05/08 00:37:10;;;;;;;9.27;8.10;;;;;;;16.17;63.79;101196.44;5051114;28;20053;-62
2022/05/08 00:39:42;;;;;;;8.35;7.18;;;;;;;16.18;63.61;101198.91;5051418;28;20049;-61
2022/05/08 00:42:10;;;;;;;8.52;6.95;;;;;;;16.17;62.99;101191.63;5055363;28;20060;-60
2022/05/08 00:44:38;;;;;;;9.18;6.30;;;;;;;16.12;62.16;101191.81;5054699;28;20048;-60
2022/05/08 00:47:07;;;;;;;6.32;5.30;;;;;;;16.09;61.64;101195.28;5054348;28;20045;-60
2022/05/08 00:49:34;;;;;;;6.97;5.45;;;;;;;16.05;61.26;101191.50;5054735;28;20123;-61
2022/05/08 00:52:02;;;;;;;7.03;5.30;;;;;;;16.00;60.98;101192.50;5054071;28;20417;-59
2022/05/08 00:54:29;;;;;;;10.00;5.40;;;;;;;15.93;60.87;101185.72;5053915;28;20175;-61
2022/05/08 00:56:57;;;;;;;8.73;5.80;;;;;;;15.94;60.56;101193.84;5054512;28;20072;-61
2022/05/08 00:59:25;;;;;;;6.32;5.18;;;;;;;15.88;60.58;101189.56;5059095;28;20084;-60
2022/05/08 01:01:52;;;;;;;8.40;5.03;;;;;;;15.89;60.63;101195.97;5054235;28;20508;-61
2022/05/08 01:04:21;;;;;;;7.75;5.30;;;;;;;15.86;60.66;101193.84;5054699;28;20072;-61
2022/05/08 01:06:49;;;;;;;6.10;5.50;;;;;;;15.84;60.72;101188.56;5054351;28;20056;-61
2022/05/08 01:09:16;;;;;;;9.68;5.60;;;;;;;15.79;60.79;101195.19;5054518;28;20059;-61
2022/05/08 01:11:43;;;;;;;7.57;5.20;;;;;;;15.72;60.90;101203.28;5054992;28;20052;-61
2022/05/08 01:14:11;;;;;;;6.38;5.03;;;;;;;15.70;61.14;101191.50;5054578;28;20481;-61
2022/05/08 01:16:40;;;;;;;6.13;5.30;;;;;;;15.69;60.99;101198.31;5053974;28;20040;-61
2022/05/08 01:19:08;;;;;;;6.95;5.13;;;;;;;15.69;61.05;101201.09;5054632;28;20053;-61
2022/05/08 01:21:41;;;;;;;6.72;5.00;;;;;;;15.68;61.36;101201.44;5054146;28;20432;-61
2022/05/08 01:24:09;;;;;;;7.80;4.90;;;;;;;15.67;61.23;101203.41;5054299;28;20056;-61
2022/05/08 01:26:36;;;;;;;7.30;5.15;;;;;;;15.68;61.29;101195.81;5054607;28;20053;-61
2022/05/08 01:29:04;;;;;;;7.00;5.47;;;;;;;15.63;61.33;101200.44;5054107;28;20059;-60
2022/05/08 01:31:32;;;;;;;8.20;5.32;;;;;;;15.65;61.37;101193.69;5054270;28;20060;-61
2022/05/08 01:33:59;;;;;;;7.43;5.03;;;;;;;15.67;61.09;101203.41;5055316;28;20492;-61
2022/05/08 01:36:27;;;;;;;6.32;5.47;;;;;;;15.68;61.12;101207.88;5054269;28;20390;-61
2022/05/08 01:38:57;;;;;;;8.05;5.30;;;;;;;15.64;61.12;101206.88;5054338;28;20048;-60
2022/05/08 01:41:24;;;;;;;8.60;5.80;;;;;;;15.60;61.47;101212.34;5054125;28;20053;-61
2022/05/08 01:43:52;;;;;;;9.18;5.43;;;;;;;15.61;61.37;101211.19;5054219;28;20053;-60
2022/05/08 01:46:20;;;;;;;8.18;5.70;;;;;;;15.61;61.28;101208.38;5052274;28;20049;-61
2022/05/08 01:48:48;;;;;;;7.85;5.32;;;;;;;15.59;61.31;101216.28;5053535;28;20060;-61
2022/05/08 01:51:16;;;;;;;9.32;6.53;;;;;;;15.54;61.59;101218.44;5053866;28;20055;-61
2022/05/08 01:53:44;;;;;;;9.43;6.03;;;;;;;15.40;61.99;101225.03;5051517;28;20531;-61
2022/05/08 01:56:13;;;;;;;9.68;7.20;;;;;;;15.42;61.79;101228.34;5051908;28;20036;-61
2022/05/08 01:58:41;;;;;;;7.43;5.82;;;;;;;15.39;61.76;101217.78;5053156;28;20416;-61
2022/05/08 02:01:09;;;;;;;9.00;6.72;;;;;;;15.30;61.86;101225.34;5053658;28;20350;-61
2022/05/08 02:03:36;;;;;;;9.20;6.78;;;;;;;15.25;61.67;101222.72;5051926;28;20436;-61
2022/05/08 02:06:04;;;;;;;9.07;6.65;;;;;;;15.19;61.74;101226.84;5044975;28;20056;-61
2022/05/08 02:08:31;;;;;;;10.43;7.13;;;;;;;15.20;61.12;101223.72;5058972;28;20057;-61
2022/05/08 02:10:58;;;;;;;9.15;7.40;;;;;;;15.18;61.22;101227.97;5053871;28;20052;-60
2022/05/08 02:13:27;;;;;;;10.20;7.07;;;;;;;15.16;60.92;101233.94;5053719;28;20057;-61
2022/05/08 02:15:55;;;;;;;9.87;7.17;;;;;;;15.06;60.94;101225.81;5053377;28;20491;-61
2022/05/08 02:18:22;;;;;;;11.20;6.63;;;;;;;15.08;60.83;101231.13;5051655;28;20475;-61
2022/05/08 02:20:49;;;;;;;8.77;6.93;;;;;;;15.08;61.07;101231.13;5053253;28;20060;-61
2022/05/08 02:23:16;;;;;;;10.05;7.75;;;;;;;15.05;60.87;101235.38;5053496;28;20435;-60
2022/05/08 02:25:44;;;;;;;9.30;7.35;;;;;;;15.05;60.96;101242.97;5053591;28;20068;-61
2022/05/08 02:28:11;;;;;;;9.15;6.30;;;;;;;15.04;60.94;101244.97;5053044;28;20480;-61
2022/05/08 02:30:40;;;;;;;10.88;7.70;;;;;;;15.04;60.71;101249.75;5054149;28;20250;-61
2022/05/08 02:33:08;;;;;;;9.88;6.88;;;;;;;14.95;60.68;101242.13;5052475;28;20061;-61
2022/05/08 02:35:35;;;;;;;10.38;7.50;;;;;;;14.91;60.55;101241.13;5052797;28;20049;-61
2022/05/08 02:38:03;;;;;;;9.25;6.88;;;;;;;14.87;60.63;101245.72;5053262;28;20064;-61
2022/05/08 02:40:32;;;;;;;9.57;6.78;;;;;;;14.83;60.33;101250.34;5053139;28;20048;-59
2022/05/08 02:42:59;;;;;;;;;;;;;;;14.66;60.26;101248.28;5055071;28;20072;-61
2022/05/08 02:45:27;;;;;;;10.02;6.78;;;;;;;14.67;60.14;101243.50;5052185;28;19921;-58
2022/05/08 02:47:56;;;;;;;11.98;7.43;;;;;;;14.61;60.28;101248.41;5052247;28;20041;-61
2022/05/08 02:50:24;;;;;;;13.90;7.97;;;;;;;14.51;60.13;101246.72;5052759;28;20049;-61
2022/05/08 02:52:52;;;;;;;9.40;7.55;;;;;;;14.50;59.90;101242.22;5052814;28;20057;-61
2022/05/08 03:00:49;;;;;;;11.75;8.20;;;;;;;14.37;60.11;101245.97;5053841;28;20071;-61
2022/05/08 03:03:18;;;;;;;11.80;8.23;;;;;;;14.40;60.20;101250.91;5051462;28;20045;-60
2022/05/08 03:05:47;;;;;;;12.57;8.20;;;;;;;14.36;60.21;101252.72;5053363;28;20049;-59
2022/05/08 03:08:17;;;;;;;12.00;9.20;;;;;;;14.34;60.41;101241.00;5052184;28;20049;-61
2022/05/08 03:13:30;;;;;;;13.43;9.20;;;;;;;14.13;60.55;101244.34;5052059;28;20067;-61
2022/05/08 03:15:58;;;;;;;13.27;8.93;;;;;;;14.13;60.52;101244.34;5062811;28;20056;-59
2022/05/08 03:18:26;;;;;;;11.32;8.52;;;;;;;14.12;60.60;101248.28;5072417;28;20059;-61
2022/05/08 03:20:54;;;;;;;14.40;8.73;;;;;;;14.12;60.56;101245.47;5072906;28;20060;-60
2022/05/08 03:23:21;;;;;;;12.02;8.40;;;;;;;14.08;60.61;101252.88;5055998;28;20056;-61
2022/05/08 03:25:49;;;;;;;11.63;8.18;;;;;;;14.09;60.63;101254.53;5051362;28;20065;-61
2022/05/08 03:28:17;;;;;;;12.82;8.00;;;;;;;14.10;60.47;101256.19;5051681;28;20489;-61
2022/05/08 03:30:45;;;;;;;11.55;7.78;;;;;;;14.08;60.90;101255.66;5052508;28;20056;-61
2022/05/08 03:33:13;;;;;;;11.95;7.35;;;;;;;14.04;60.22;101257.44;5052498;28;20060;-59
2022/05/08 03:35:42;;;;;;;12.52;7.72;;;;;;;14.05;59.73;101258.28;5052592;28;20063;-61
2022/05/08 03:38:10;;;;;;;12.00;7.38;;;;;;;13.92;59.86;101260.00;5052091;28;20515;-61
2022/05/08 03:40:38;;;;;;;14.55;7.20;;;;;;;13.93;59.72;101261.66;5052637;28;20056;-60
2022/05/08 03:43:06;;;;;;;10.82;6.57;;;;;;;13.92;59.12;101265.59;5052199;28;20053;-61
2022/05/08 03:45:34;;;;;;;12.52;6.63;;;;;;;13.91;59.00;101269.56;5051797;28;20049;-61
2022/05/08 03:48:01;;;;;;;15.68;6.80;;;;;;;13.87;59.09;101269.34;5051893;28;20051;-59
2022/05/08 03:50:29;;;;;;;13.20;5.88;;;;;;;13.80;59.05;101268.97;5052178;28;20060;-60
2022/05/08 03:52:59;;;;;;;12.43;6.30;;;;;;;13.76;58.62;101271.56;5049868;28;20072;-60
2022/05/08 03:55:27;;;;;;;12.80;5.78;;;;;;;13.78;58.31;101277.69;5051725;28;20060;-60
2022/05/08 03:57:54;;;;;;;12.05;6.38;;;;;;;13.59;58.56;101272.25;5051682;28;20046;-61
2022/05/08 04:00:22;;;;;;;10.68;5.18;;;;;;;13.64;57.74;101274.09;5051872;28;20053;-61
2022/05/08 04:02:49;;;;;;;11.75;5.05;;;;;;;13.64;57.26;101270.47;5051855;28;20064;-60
2022/05/08 04:05:19;;;;;;;10.73;5.15;;;;;;;13.62;57.15;101276.38;5051087;28;20060;-60
2022/05/08 04:07:47;;;;;;;11.10;4.88;;;;;;;13.58;56.80;101272.56;5050627;28;20049;-60
2022/05/08 04:10:16;;;;;;;14.00;5.60;;;;;;;13.58;56.82;101273.38;5051637;28;20397;-59
2022/05/08 04:12:43;;;;;;;11.32;4.65;;;;;;;13.57;57.12;101262.53;5050844;28;20049;-61
2022/05/08 04:16:15;;;;;;;14.55;4.72;;;;;;;13.53;56.92;101258.69;5054108;28;20381;-61
2022/05/08 04:17:59;;;;;;;11.55;5.22;;;;;;;13.49;56.69;101271.66;5055716;28;20408;-61
2022/05/08 04:20:26;;;;;;;13.25;5.43;;;;;;;13.51;57.00;101258.19;5054998;28;20483;-61
2022/05/08 04:25:40;;;;;;;9.35;3.95;;;;;;;13.55;56.62;101262.00;5054658;28;20115;-61
2022/05/08 04:28:07;;;;;;;11.25;4.70;;;;;;;13.54;56.50;101266.78;5054870;28;20485;-61
2022/05/08 04:30:38;;;;;;;11.82;4.30;;;;;;;13.54;56.90;101279.94;5055172;28;20048;-60
2022/05/08 04:33:05;;;;;;;11.02;5.25;;;;;;;13.55;56.80;101270.41;5055388;28;20053;-61
2022/05/08 04:35:32;;;;;;;10.30;4.90;;;;;;;13.50;57.07;101274.16;5055336;28;20056;-58
2022/05/08 04:38:00;;;;;;;9.73;4.50;;;;;;;13.57;56.78;101274.53;5054876;28;20055;-58
2022/05/08 04:40:27;;;;;;;12.70;4.40;;;;;;;13.54;56.52;101272.38;5055082;28;20052;-58
2022/05/08 04:42:56;;;;;;;13.43;5.25;;;;;;;13.58;56.70;101272.56;5055148;28;20497;-61
2022/05/08 04:45:23;;;;;;;14.60;5.10;;;;;;;13.64;57.13;101282.50;5055366;28;20060;-59
2022/05/08 04:47:51;;;;;;;12.15;4.78;;;;;;;13.66;56.59;101285.00;5055188;28;20060;-61
2022/05/08 04:50:18;;;;;;;15.80;5.07;;;;;;;13.70;56.88;101284.03;5054903;28;20053;-61
2022/05/08 04:52:46;;;;;;;9.48;4.15;;;;;;;13.78;56.74;101294.50;5054954;28;20056;-60
2022/05/08 04:55:13;;;;;;;15.85;4.97;;;;;;;13.86;56.84;101292.06;5054736;28;20062;-61
2022/05/08 04:57:40;;;;;;;15.35;5.88;;;;;;;13.89;56.53;101294.25;5055010;28;20513;-59
2022/05/08 05:00:10;;;;;;;11.88;4.50;;;;;;;13.95;56.45;101301.38;5055213;28;20048;-61
2022/05/08 05:02:38;;;;;;;13.15;4.50;;;;;;;14.00;56.58;101298.44;5054659;28;20446;-61
2022/05/08 05:05:07;;;;;;;12.27;5.13;;;;;;;13.95;55.82;101309.78;5054622;28;20076;-61
2022/05/08 05:07:34;;;;;;;13.02;5.20;;;;;;;13.90;55.69;101307.09;5053928;28;20068;-59
2022/05/08 05:10:02;;;;;;;11.32;4.72;;;;;;;13.93;56.01;101312.06;5054682;28;20169;-60
2022/05/08 05:12:30;;;;;;;15.70;5.13;;;;;;;13.99;55.94;101317.25;5054610;28;20053;-60
2022/05/08 05:14:57;;;;;;;17.63;5.47;;;;;;;14.05;55.82;101317.94;5055637;28;20049;-60
2022/05/08 05:17:26;;;;;;;15.10;4.70;;;;;;;14.02;56.11;101315.75;5054595;28;20053;-59
2022/05/08 05:19:53;;;;;;;11.00;4.53;;;;;;;14.08;55.75;101324.88;5054617;28;20049;-59
2022/05/08 05:22:21;;;;;;;10.43;4.25;;;;;;;14.12;55.45;101320.31;5053299;28;20052;-60
2022/05/08 05:24:49;;;;;;;15.05;5.25;;;;;;;14.15;55.40;101325.25;5054500;28;20481;-58
2022/05/08 05:27:16;;;;;;;14.13;5.05;;;;;;;14.11;55.43;101327.03;5053694;28;20056;-60
2022/05/08 05:29:44;;;;;;;10.13;4.40;;;;;;;14.11;54.66;101330.69;5053991;28;20496;-61
2022/05/08 05:32:11;;;;;;;10.88;4.60;;;;;;;14.19;54.68;101324.31;5054753;28;20507;-61
2022/05/08 05:34:39;;;;;;;17.42;4.80;;;;;;;14.13;54.80;101335.97;5050603;28;20056;-61
2022/05/08 05:37:07;;;;;;;12.35;4.88;;;;;;;14.15;55.00;101328.91;5054196;28;20052;-61
2022/05/08 05:39:34;;;;;;;12.75;4.68;;;;;;;14.29;54.65;101330.81;5054059;28;20052;-60
2022/05/08 05:42:01;;;;;;;11.63;4.43;;;;;;;14.45;54.05;101340.50;5054068;28;20452;-61
2022/05/08 05:44:29;;;;;;;11.85;4.60;;;;;;;14.54;53.18;101344.16;5054203;28;20059;-61
2022/05/08 05:49:43;;;;;;;13.35;4.68;;;;;;;14.46;53.38;101349.72;5057401;28;20512;-59
2022/05/08 05:52:10;;;;;;;13.57;4.60;;;;;;;14.48;53.78;101339.84;5053749;28;20060;-61
2022/05/08 05:54:37;;;;;;;12.20;4.47;;;;;;;14.58;53.26;101348.03;5052608;28;20060;-61
2022/05/08 05:57:05;;;;;;;12.90;4.63;;;;;;;14.64;52.88;101354.34;5053230;28;20059;-61
2022/05/08 05:59:32;;;;;;;12.25;4.45;;;;;;;14.71;52.88;101351.06;5052272;28;20060;-61
2022/05/08 06:02:00;;;;;;;11.32;4.60;;;;;;;14.71;53.46;101359.50;5053503;28;20457;-60
2022/05/08 06:04:27;;;;;;;11.80;4.53;;;;;;;14.68;54.18;101360.09;5053571;28;20056;-60
2022/05/08 06:06:56;;;;;;;9.32;3.97;;;;;;;14.69;53.47;101362.59;5052395;28;20500;-61
2022/05/08 06:09:23;;;;;;;15.70;5.00;;;;;;;14.71;54.14;101362.28;5053191;28;20068;-60
2022/05/08 06:11:52;;;;;;;13.18;4.80;;;;;;;14.85;53.85;101363.03;5053868;28;20049;-61
2022/05/08 06:14:19;;;;;;;11.88;4.50;;;;;;;15.01;52.66;101360.63;5052997;28;20049;-60
2022/05/08 06:16:47;;;;;;;10.98;4.80;;;;;;;15.11;52.55;101367.94;5052795;28;20389;-61
2022/05/08 06:19:14;;;;;;;13.80;4.75;;;;;;;15.07;52.85;101366.94;5053011;28;20049;-61
2022/05/08 06:21:42;;;;;;;10.05;4.07;;;;;;;15.22;52.25;101370.16;5051331;28;20389;-60
2022/05/08 06:24:10;;;;;;;13.82;4.72;;;;;;;15.26;52.01;101364.69;5045546;28;20401;-60
2022/05/08 06:26:38;;;;;;;10.50;4.57;;;;;;;15.38;51.78;101364.09;5050803;28;20053;-61
2022/05/08 06:29:05;;;;;;;16.35;5.15;;;;;;;15.53;51.08;101376.84;5050823;28;20056;-58
2022/05/08 06:31:33;;;;;;;14.57;4.60;;;;;;;15.46;50.80;101373.69;5052880;28;20076;-61
2022/05/08 06:34:00;;;;;;;13.32;4.18;;;;;;;15.55;50.86;101366.94;5052933;28;20093;-61
2022/05/08 06:36:27;;;;;;;12.32;4.40;;;;;;;15.65;50.73;101371.44;5051165;28;20112;-61
2022/05/08 06:38:55;;;;;;;13.98;5.13;;;;;;;15.85;49.83;101372.00;5051146;28;20049;-61
2022/05/08 06:41:23;;;;;;;11.55;4.47;;;;;;;15.93;49.98;101368.38;5052728;28;20044;-61
2022/05/08 06:43:51;;;;;;;10.38;4.40;;;;;;;16.12;49.75;101376.47;5051504;28;20060;-61
2022/05/08 06:46:19;;;;;;;12.40;4.10;;;;;;;16.22;49.16;101365.72;5053058;28;20060;-61
2022/05/08 06:48:47;;;;;;;12.60;4.25;;;;;;;16.36;49.26;101373.19;5052828;28;20056;-61
2022/05/08 06:51:14;;;;;;;13.27;4.43;;;;;;;16.52;48.76;101371.50;5052725;28;20497;-60
2022/05/08 06:53:43;;;;;;;15.75;4.95;;;;;;;16.32;48.42;101375.00;5052031;28;20060;-59
2022/05/08 06:56:13;;;;;;;11.70;4.35;;;;;;;16.52;48.90;101377.13;5053370;28;20409;-61
2022/05/08 07:01:38;;;;;;;11.98;4.65;;;;;;;16.99;47.30;101376.41;5033073;28;20061;-61
2022/05/08 07:04:07;;;;;;;9.98;3.83;;;;;;;17.11;46.88;101382.13;5044198;28;20048;-61
2022/05/08 07:06:34;;;;;;;11.82;4.55;;;;;;;17.25;46.24;101377.13;5052111;28;20515;-61
2022/05/08 07:09:02;;;;;;;12.63;4.70;;;;;;;17.32;45.71;101385.03;5050953;28;20048;-60
2022/05/08 07:11:30;;;;;;;12.85;4.45;;;;;;;17.55;45.82;101376.31;5052180;28;20049;-61
2022/05/08 07:13:59;;;;;;;15.52;4.93;;;;;;;17.75;45.49;101381.16;5063344;28;20056;-60
2022/05/08 07:16:27;;;;;;;11.77;4.13;;;;;;;17.84;44.83;101381.13;5059879;28;20060;-61
2022/05/08 07:18:54;;;;;;;9.15;3.90;;;;;;;17.85;44.80;101386.44;5051550;28;20060;-60
2022/05/08 07:21:22;;;;;;;12.15;4.47;;;;;;;18.12;44.35;101387.09;5034198;28;20386;-61
2022/05/08 07:23:49;;;;;;;10.25;4.38;;;;;;;18.16;44.47;101388.03;5052136;28;20051;-61
2022/05/08 07:26:17;;;;;;;11.60;4.60;;;;;;;18.09;43.83;101381.31;5051144;28;20053;-61
2022/05/08 07:28:44;;;;;;;11.82;4.25;;;;;;;18.21;43.84;101382.19;5049730;28;20068;-61
2022/05/08 07:31:13;;;;;;;11.13;4.30;;;;;;;18.57;43.67;101377.88;5050972;28;20053;-61
2022/05/08 07:33:40;;;;;;;11.18;3.30;;;;;;;18.82;43.07;101380.84;5052103;28;20045;-61
2022/05/08 07:36:16;;;;;;;10.70;3.95;;;;;;;19.12;42.37;101383.47;5051688;28;20057;-61
2022/05/08 07:38:45;;;;;;;11.90;4.47;;;;;;;19.25;41.71;101376.66;5051157;28;20484;-61
2022/05/08 07:41:14;;;;;;;9.75;4.00;;;;;;;19.34;41.99;101385.03;5051424;28;20111;-59
2022/05/08 07:43:44;;;;;;;11.80;5.28;;;;;;;19.23;41.09;101381.84;5051743;28;20060;-61
2022/05/08 07:46:14;;;;;;;8.88;3.83;;;;;;;20.03;40.06;101386.06;5051624;28;20064;-61
2022/05/08 07:48:42;;;;;;;12.07;3.72;;;;;;;20.00;39.93;101383.97;5051586;28;20045;-61
2022/05/08 07:51:09;;;;;;;9.98;4.00;;;;;;;19.71;40.43;101393.53;5051613;28;20052;-61
2022/05/08 07:53:39;;;;;;;12.38;3.95;;;;;;;19.66;40.17;101386.09;5050836;28;20056;-60
2022/05/08 07:56:07;;;;;;;9.70;4.25;;;;;;;19.68;40.76;101389.41;5052135;28;20057;-61
2022/05/08 07:58:34;;;;;;;10.23;4.13;;;;;;;19.47;40.25;101386.69;5051118;28;20048;-58
2022/05/08 08:01:04;;;;;;;13.73;4.07;;;;;;;19.52;40.59;101391.28;5051467;28;20068;-61
2022/05/08 08:03:34;;;;;;;12.82;4.75;;;;;;;19.58;40.24;101401.19;5050096;28;20052;-61
2022/05/08 08:06:03;;;;;;;10.98;4.32;;;;;;;19.34;40.76;101399.16;5053775;28;20072;-61
2022/05/08 08:08:31;;;;;;;10.43;4.10;;;;;;;19.46;41.27;101405.66;5049423;28;20515;-61
2022/05/08 08:11:01;;;;;;;10.25;4.22;;;;;;;19.61;40.03;101406.97;5049115;28;20518;-61
2022/05/08 08:13:29;;;;;;;11.57;4.00;;;;;;;19.23;40.28;101405.28;5050124;28;20060;-61
2022/05/08 08:15:57;;;;;;;8.82;3.63;;;;;;;19.25;40.38;101404.91;5051755;28;20128;-61
2022/05/08 08:18:25;;;;;;;8.82;3.83;;;;;;;19.13;41.00;101413.34;5050717;28;20064;-59
2022/05/08 08:20:54;;;;;;;11.38;3.53;;;;;;;19.26;40.71;101417.88;5051942;28;20055;-61
2022/05/08 08:23:21;;;;;;;11.23;4.40;;;;;;;19.41;40.72;101416.34;5050665;28;20492;-61
2022/05/08 08:25:49;;;;;;;12.07;4.05;;;;;;;19.54;40.05;101412.34;5037224;28;20045;-61
2022/05/08 08:28:16;;;;;;;10.95;3.83;;;;;;;19.50;40.36;101424.72;5041875;28;20076;-61
2022/05/08 08:30:43;;;;;;;13.43;4.45;;;;;;;19.72;39.99;101424.28;5052051;28;20481;-61
2022/05/08 08:33:11;;;;;;;8.57;4.03;;;;;;;19.90;39.12;101430.50;5049544;28;20064;-60
2022/05/08 08:35:39;;;;;;;9.82;4.15;;;;;;;20.13;39.88;101428.00;5049371;28;20068;-61
2022/05/08 08:38:08;;;;;;;13.88;4.25;;;;;;;20.48;38.81;101428.28;5049917;28;20054;-59
2022/05/08 08:40:41;;;;;;;11.23;4.05;;;;;;;20.74;38.98;101431.88;5051262;28;20053;-60
2022/05/08 08:43:11;;;;;;;9.48;4.20;;;;;;;21.82;37.33;101427.06;5050765;28;20057;-61
2022/05/08 08:48:28;;;;;;;9.90;3.97;;;;;;;24.18;32.45;101422.31;5051725;28;20068;-61
2022/05/08 08:50:56;;;;;;;11.20;3.95;;;;;;;24.30;32.65;101432.66;5051600;28;20063;-61
2022/05/08 08:53:27;;;;;;;8.03;3.50;;;;;;;24.05;32.78;101432.28;5051799;28;20055;-61
2022/05/08 08:55:59;;;;;;;10.63;4.10;;;;;;;24.22;31.78;101433.75;5052279;28;20400;-61
2022/05/08 08:58:27;;;;;;;9.07;3.38;;;;;;;24.27;32.60;101431.41;5051565;28;20064;-61
2022/05/08 09:00:54;;;;;;;10.98;4.50;;;;;;;25.28;30.83;101438.31;5051838;28;20052;-61
2022/05/08 09:03:25;;;;;;;9.98;4.53;;;;;;;25.82;30.57;101430.25;5055080;28;20052;-61
2022/05/08 09:05:54;;;;;;;8.93;4.03;;;;;;;26.17;29.46;101441.13;5055148;28;20060;-61
2022/05/08 09:08:31;;;;;;;11.00;4.32;;;;;;;26.82;28.28;101435.75;5054699;28;20064;-59
2022/05/08 09:10:59;;;;;;;7.43;3.75;;;;;;;27.56;27.55;101433.44;5055231;28;20049;-61
2022/05/08 09:13:27;;;;;;;8.10;4.47;;;;;;;27.91;26.78;101416.28;5055503;28;20064;-60
2022/05/08 09:16:05;;;;;;;11.55;3.75;;;;;;;28.48;25.59;101425.97;5054952;28;20483;-61
2022/05/08 09:18:44;;;;;;;7.40;3.40;;;;;;;29.29;25.61;101434.56;5055196;28;20508;-61
2022/05/08 09:24:11;;;;;;;9.63;4.85;;;;;;;29.95;23.67;101425.84;5060486;28;20064;-62
2022/05/08 09:26:38;;;;;;;9.38;4.00;;;;;;;29.95;24.23;101425.84;5054740;28;20053;-61
2022/05/08 09:29:07;;;;;;;7.40;3.97;;;;;;;30.45;23.82;101427.38;5055433;28;20064;-61
2022/05/08 09:31:42;;;;;;;10.45;4.53;;;;;;;30.11;23.72;101427.31;5054431;28;20393;-62
2022/05/08 09:34:10;;;;;;;7.47;3.85;;;;;;;30.11;23.62;101425.28;5054098;28;20052;-62
2022/05/08 09:36:37;;;;;;;10.05;4.13;;;;;;;30.79;23.33;101431.47;5054408;28;20355;-61
2022/05/08 09:39:06;;;;;;;8.85;4.30;;;;;;;30.90;22.39;101426.41;5054054;28;20491;-62
2022/05/08 09:41:36;;;;;;;9.00;3.58;;;;;;;29.67;23.89;101426.91;5055230;28;20052;-61
2022/05/08 09:44:14;;;;;;;8.00;3.70;;;;;;;30.50;23.37;101428.97;5054934;28;20084;-61
2022/05/08 09:46:44;;;;;;;8.10;4.07;;;;;;;30.78;23.04;101429.81;5054958;28;20055;-61
2022/05/08 09:49:13;;;;;;;6.68;3.50;;;;;;;30.67;22.92;101427.09;5054457;28;20472;-62
2022/05/08 09:51:42;;;;;;;8.65;3.88;;;;;;;30.97;22.82;101420.53;5054127;28;20405;-62
2022/05/08 09:54:09;;;;;;;8.05;3.63;;;;;;;30.70;22.30;101429.09;5054297;28;20053;-62
2022/05/08 09:56:38;;;;;;;9.15;3.85;;;;;;;30.38;23.22;101427.44;5053938;28;20053;-62
2022/05/08 09:59:07;;;;;;;7.97;3.70;;;;;;;29.63;23.41;101426.13;5054058;28;20060;-61
2022/05/08 10:01:35;;;;;;;8.30;4.28;;;;;;;29.50;24.09;101424.97;5053661;28;20056;-61
2022/05/08 10:04:03;;;;;;;8.18;3.65;;;;;;;29.38;24.68;101425.47;5054171;28;20413;-61
2022/05/08 10:06:32;;;;;;;8.75;4.15;;;;;;;28.77;24.70;101417.22;5051512;28;20049;-61
2022/05/08 10:14:30;;;;;;;6.70;3.80;;;;;;;27.79;26.87;101428.13;5058098;28;20067;-62
2022/05/08 10:17:04;;;;;;;8.18;4.30;;;;;;;27.76;25.97;101423.22;5053129;28;20061;-62
2022/05/08 10:19:45;;;;;;;7.90;3.70;;;;;;;27.50;26.63;101422.41;5052868;28;20049;-59
2022/05/08 10:22:14;;;;;;;7.13;4.15;;;;;;;26.95;27.10;101422.72;5043401;28;20051;-62
2022/05/08 10:24:47;;;;;;;7.97;4.05;;;;;;;26.79;27.08;101425.09;5053855;28;20064;-62
2022/05/08 10:27:18;;;;;;;8.15;4.38;;;;;;;27.54;26.44;101419.53;5053240;28;20056;-62
2022/05/08 10:30:33;;;;;;;7.55;3.78;;;;;;;27.98;25.51;101414.63;5052839;28;20064;-62
2022/05/08 10:33:01;;;;;;;7.10;3.60;;;;;;;29.22;25.23;101418.22;5049285;28;20045;-63
2022/05/08 10:35:31;;;;;;;7.30;4.35;;;;;;;30.56;22.99;101407.09;5052263;28;20056;-63
2022/05/08 10:38:25;;;;;;;7.80;3.85;;;;;;;30.69;22.56;101410.22;5051965;28;20060;-63
2022/05/08 10:40:55;;;;;;;6.75;4.03;;;;;;;30.30;22.58;101412.38;5026716;28;20049;-58
2022/05/08 10:43:28;;;;;;;9.85;4.00;;;;;;;31.00;21.96;101419.69;5051432;28;20053;-58
2022/05/08 10:46:14;;;;;;;10.32;4.75;;;;;;;32.11;20.96;101408.41;5054348;28;20396;-58
2022/05/08 10:48:41;;;;;;;6.72;4.00;;;;;;;33.44;19.56;101409.19;5054474;28;20443;-58
2022/05/08 10:51:08;;;;;;;7.03;3.90;;;;;;;33.96;19.16;101402.47;5047363;28;20068;-58
2022/05/08 10:53:37;;;;;;;7.32;3.70;;;;;;;34.73;18.81;101399.88;5044557;28;20477;-58
2022/05/08 10:56:06;;;;;;;8.32;3.50;;;;;;;35.66;16.78;101407.66;5050277;28;20436;-58
2022/05/08 10:58:39;;;;;;;7.72;3.95;;;;;;;36.63;17.65;101401.25;5047640;28;20049;-56
2022/05/08 11:01:09;;;;;;;6.47;3.60;;;;;;;37.53;15.46;101397.59;5039299;28;20188;-59
2022/05/08 11:03:37;;;;;;;7.65;4.68;;;;;;;37.98;15.11;101396.84;5052327;28;20128;-59
2022/05/08 11:06:06;;;;;;;7.05;3.63;;;;;;;37.88;14.45;101397.34;5052772;28;20067;-59
2022/05/08 11:08:35;;;;;;;5.10;3.15;;;;;;;37.93;13.84;101391.69;5052488;28;20052;-59
2022/05/08 11:11:07;;;;;;;5.22;3.42;;;;;;;38.07;13.04;101392.38;5051343;28;20053;-59
2022/05/08 11:13:43;;;;;;;5.35;3.47;;;;;;;37.97;13.52;101389.44;5053078;28;20056;-59
2022/05/08 11:16:12;;;;;;;7.10;3.42;;;;;;;38.31;13.18;101399.16;5052858;28;20064;-58
2022/05/08 11:18:39;;;;;;;4.47;2.85;;;;;;;38.13;12.48;101390.44;5051814;28;20052;-59
2022/05/08 11:21:09;;;;;;;4.68;2.65;;;;;;;38.33;13.00;101392.84;5053019;28;20053;-59
2022/05/08 11:23:41;;;;;;;4.82;2.53;;;;;;;38.35;11.75;101393.97;5052043;28;20060;-59
2022/05/08 11:26:10;;;;;;;4.90;2.60;;;;;;;37.70;12.34;101389.44;5052727;28;20076;-59
2022/05/08 11:28:49;;;;;;;5.82;2.60;;;;;;;37.26;12.76;101392.53;5051554;28;20425;-59
2022/05/08 11:31:17;;;;;;;6.13;2.58;;;;;;;35.95;12.39;101384.25;5052479;28;20481;-59
2022/05/08 11:36:31;;;;;;;5.05;2.33;;;;;;;33.67;13.12;101385.09;5058540;28;19921;-59
2022/05/08 11:39:01;;;;;;;4.53;2.60;;;;;;;34.02;13.88;101390.34;5052318;28;20064;-57
2022/05/08 11:41:34;;;;;;;4.75;2.90;;;;;;;33.50;14.44;101380.56;5052481;28;20053;-59
2022/05/08 11:44:16;;;;;;;3.97;2.10;;;;;;;33.67;14.68;101373.53;5052175;28;20214;-59
2022/05/08 11:46:45;;;;;;;6.82;2.90;;;;;;;34.02;15.15;101367.22;5050808;28;20064;-58
2022/05/08 11:49:17;;;;;;;5.22;2.67;;;;;;;34.39;16.36;101367.84;5052156;28;20393;-59
2022/05/08 11:51:48;;;;;;;4.80;2.72;;;;;;;35.12;16.11;101362.25;5052073;28;20049;-59
2022/05/08 11:54:23;;;;;;;5.40;3.05;;;;;;;35.66;15.65;101366.25;5052039;28;20057;-59
2022/05/08 11:56:52;;;;;;;7.25;3.35;;;;;;;36.34;15.90;101361.69;5052045;28;20053;-59
2022/05/08 11:59:22;;;;;;;7.00;3.35;;;;;;;36.54;15.03;101360.50;5051705;28;20063;-59